カンゲルルススアーク の空港の天気 - METARとTAF

カンゲルルススアーク空港 ( BGSF / SFJ ) - グリーンランド カンゲルルススアーク
飛行場実況気象(Metar)
観測時間11/14 13:50 WGT (11/14 16:50 UTC)
風向・風速東北東 4m/s
視程-
天気現象弱いしゅう雪
全天を覆う雲 雲底高度 340m
気温-14℃
湿度85%
気圧1003hPa
METARBGSF 141650Z AUTO 07007KT 9999NDV -SHSN OVC011/// M14/M16 Q1003
過去の天気等 Google飛行場航空写真 Wunderground天気予報

過去48時間のMETAR

飛行場予報(TAF)
発表時間: 11/14 11:12 WGT (11/14 14:12 UTC)
予報対象時間: 14日11時 WGT ~ 14日23時 WGT
風向・風速東北東 3m/s
視程10km以上
全天の8割程度の雲 雲底高度 370m
14日11時 WGT ~ 14日13時 WGT に一時的に
全天の8割程度の雲 雲底高度 910m
14日13時 WGT ~ 14日15時 WGT に徐々に
全天の4割程度の雲 雲底高度 610m
TAF AMD BGSF 141412Z 1414/1502 06006KT 9999 BKN012
TEMPO 1414/1416 BKN030
BECMG 1416/1418 SCT020